Stamford, United Kingdom
Current Conditions -  °F | °C
As of 12:50 AM on Friday 28 Nov 2014 (Local Time) from EGXT Reporting Station
Moderate Fog Moderate Fog  
Wind Chill:   Ceiling: Unl
Heat Index:   Visibility: 0.37mi
Dew Point:   Wind: 6mph
Humidity: 100%   Direction: 100°E
Pressure: 29.59"   Gusts: NA
Location:  52.65°N, 0.48°W
Report Text: EGXT 280050Z AUTO 10005KT 0600 FG VV/// 09/09 Q1002
Loading
Personal Weather Stations






























Interactive Weather Map New forecast layout! Learn more

10-Day Weather Forecast

Advertisements
Track Severe Weather on mobile